Saturday, October 25, 2014
09:34 UTC
  |  Log In   |  Register Free
Airport Search:

La Guardia Airport
(KLGA)

FAA data valid effective September 18, 2014 - November 13, 2014 (unless otherwise noted).

 
 
 
 
 
 
 
 
 
 
 
 
 
 

Current Aviation Weather for La Guardia Airport (KLGA)

The most recent METAR observation for KLGA was updated at: 0914
METAR Summary (Translated METAR)
KLGA
250851Z 31012KT 10SM CLR 12/04 A2985 RMK AO2 SLP108 T01220039 51001
KJFK
250851Z 30008KT 10SM SCT250 11/03 A2987 RMK AO2 SLP113 T01110028 51002
(9.3 nm SE from KLGA)
KTEB
250851Z 32003KT 10SM CLR 10/02 A2985 RMK AO2 SLP108 T01000022 58000
(9.6 nm NW from KLGA)
TAF Summary (Translated TAF)
KLGA
250837Z 2509/2606 32010KT P6SM SCT250 FM251500 28012KT P6SM SKC FM251800 25014G20KT P6SM SCT050 FM252300 26015KT P6SM BKN050
KJFK
(9.3 nm SE from KLGA)
250837Z 2509/2612 31007KT P6SM SCT250 FM251300 28012KT P6SM SKC FM251800 25014G20KT P6SM SCT050 FM252300 26015KT P6SM BKN050 FM260900 29015KT P6SM SCT050
  Airport Weather Conditions for KLGA

 Current Weather at LGA
54° F
Mostly Cloudy
Northwest winds at 13.8 mph
LGA NOAA Radar

Pressure: 29.85 in
Humidity: 57%
Wind: Northwest at 13.8 MPH (12 KT)
Dew Point: 39.0°F
Visibility: 10.00 mi


Airport Weather Forecast for KLGA

Translated METAR and TAF for KLGA
Translated METAR for KLGA (0929 UTC 25 October 2014)
found at http://aviationweather.gov/adds/metars/
 
METAR text: KLGA 250851Z COR 31012KT 10SM BKN250 12/04 A2985 RMK AO2 SLP108 T01220039 51001
Conditions at: KLGA (NYC/LA GUARDIA , NY, US) observed 0851 UTC 25 October 2014
Temperature: 12.2°C (54°F)
Dewpoint: 3.9°C (39°F) [RH = 57%]
Pressure (altimeter): 29.85 inches Hg (1010.9 mb)
[Sea-level pressure: 1010.8 mb]
Winds: from the NW (310 degrees) at 14 MPH (12 knots; 6.2 m/s)
Visibility: 10 or more miles (16+ km)
Ceiling: 25000 feet AGL
Clouds: broken clouds at 25000 feet AGL
Weather: no significant weather observed at this time
Translated TAF for KLGA
Forecast for: KLGA (NYC/LA GUARDIA , NY, US)
TAF Text: KLGA 250837Z 2509/2606 32010KT P6SM SCT250
Forecast period: 0900 to 1500 UTC 25 October 2014
Forecast type: FROM: standard forecast or significant change
Winds: from the NW (320 degrees) at 12 MPH (10 knots; 5.2 m/s)
Visibility: 6 or more miles (10+ km)
Clouds: scattered clouds at 25000 feet AGL
Weather: no significant weather forecast for this period
TAF Text: FM251500 28012KT P6SM SKC
Forecast period: 1500 to 1800 UTC 25 October 2014
Forecast type: FROM: standard forecast or significant change
Winds: from the W (280 degrees) at 14 MPH (12 knots; 6.2 m/s)
Visibility: 6 or more miles (10+ km)
Clouds: clear skies
Weather: no significant weather forecast for this period
TAF Text: FM251800 25014G20KT P6SM SCT050
Forecast period: 1800 to 2300 UTC 25 October 2014
Forecast type: FROM: standard forecast or significant change
Winds: from the WSW (250 degrees) at 16 MPH (14 knots; 7.3 m/s)
gusting to 23 MPH (20 knots; 10.4 m/s)
Visibility: 6 or more miles (10+ km)
Clouds: scattered clouds at 5000 feet AGL
Weather: no significant weather forecast for this period
TAF Text: FM252300 26015KT P6SM BKN050
Forecast period: 2300 UTC 25 October 2014 to 0600 UTC 26 October 2014
Forecast type: FROM: standard forecast or significant change
Winds: from the W (260 degrees) at 17 MPH (15 knots; 7.8 m/s)
Visibility: 6 or more miles (10+ km)
Ceiling: 5000 feet AGL
Clouds: broken clouds at 5000 feet AGL
Weather: no significant weather forecast for this period

Find All Airport Services Find A Hotel Find A Rental Car Find A Golf Course Find A Restaurant $100 Hamburger



FBO's on the Field
FBO Company Facility Photos Services Transportation Aviation Fuel Prices: Prices include tax
Catering Weather Repair Courtesy Rental Type 100LL JetA JetA+ MOGAS 8087
 
Sheltair

This FBO has not yet been rated
FS:Avfuel
Last Updated: Sep-26
Login to update fuel prices
SS:
Contact SheltairMore FBO Information
 
Add another FBO Facility Photos Catering Weather Repair Courtesy Rental Type 100LL JetA JetA+ MOGAS 8087
Services Transportation Aviation Fuel Prices: Prices include tax


model-print
model-print
model-print
model-print